createdAt,value
2023-03-30T00:01:00.795Z,9.70
2023-03-30T00:03:33.555Z,9.74
2023-03-30T00:06:09.152Z,9.76
2023-03-30T00:08:41.939Z,9.79
2023-03-30T00:11:17.460Z,9.81
2023-03-30T00:13:50.755Z,9.82
2023-03-30T00:16:24.594Z,9.79
2023-03-30T00:18:57.709Z,9.77
2023-03-30T00:21:30.548Z,9.81
2023-03-30T00:24:03.053Z,9.83
2023-03-30T00:26:36.129Z,9.86
2023-03-30T00:29:09.379Z,9.87
2023-03-30T00:31:42.483Z,9.86
2023-03-30T00:34:15.674Z,9.84
2023-03-30T00:36:49.324Z,9.69
2023-03-30T00:39:23.215Z,9.72
2023-03-30T00:41:56.416Z,9.76
2023-03-30T00:45:04.049Z,9.80
2023-03-30T00:47:40.115Z,9.85
2023-03-30T00:50:14.244Z,9.83
2023-03-30T00:52:46.560Z,9.79
2023-03-30T00:55:19.997Z,9.83
2023-03-30T00:57:54.409Z,9.82
2023-03-30T01:00:28.175Z,9.79
2023-03-30T01:03:06.035Z,9.80
2023-03-30T01:05:41.426Z,9.82
2023-03-30T01:08:16.791Z,9.80
2023-03-30T01:10:49.904Z,9.81
2023-03-30T01:13:23.323Z,9.84
2023-03-30T01:16:10.107Z,9.82
2023-03-30T01:18:54.864Z,9.79
2023-03-30T01:22:07.155Z,9.80
2023-03-30T01:25:10.655Z,9.84
2023-03-30T01:28:05.951Z,9.85
2023-03-30T01:30:47.052Z,9.84
2023-03-30T01:33:35.148Z,9.83
2023-03-30T01:36:40.362Z,9.81
2023-03-30T01:39:42.055Z,9.76
2023-03-30T01:42:24.362Z,9.76
2023-03-30T01:45:05.103Z,9.79
2023-03-30T01:47:40.533Z,9.71
2023-03-30T01:50:18.953Z,9.73
2023-03-30T01:52:57.375Z,9.71
2023-03-30T01:55:34.634Z,9.70
2023-03-30T01:58:12.047Z,9.65
2023-03-30T02:00:48.789Z,9.61
2023-03-30T02:03:26.208Z,9.59
2023-03-30T02:06:04.978Z,9.61
2023-03-30T02:08:40.554Z,9.61
2023-03-30T02:11:13.151Z,9.60
2023-03-30T02:13:47.956Z,9.66
2023-03-30T02:16:23.496Z,9.65
2023-03-30T02:18:59.847Z,9.66
2023-03-30T02:21:33.813Z,9.66
2023-03-30T02:24:18.233Z,9.63
2023-03-30T02:26:52.998Z,9.63
2023-03-30T02:29:27.392Z,9.63
2023-03-30T02:32:01.649Z,9.56
2023-03-30T02:34:50.777Z,9.64
2023-03-30T02:37:39.863Z,9.56
2023-03-30T02:40:26.620Z,9.62
2023-03-30T02:43:10.121Z,9.64
2023-03-30T02:45:52.873Z,9.65
2023-03-30T02:48:36.298Z,9.64
2023-03-30T02:51:22.018Z,9.65
2023-03-30T02:54:22.972Z,9.65
2023-03-30T02:57:47.906Z,9.65
2023-03-30T03:00:45.902Z,9.65
2023-03-30T03:03:27.821Z,9.63
2023-03-30T03:06:02.961Z,9.64
2023-03-30T03:08:42.084Z,9.61
2023-03-30T03:11:16.122Z,9.58
2023-03-30T03:13:48.964Z,9.58
2023-03-30T03:16:22.254Z,9.61
2023-03-30T03:19:19.401Z,9.58
2023-03-30T03:21:54.584Z,9.62
2023-03-30T03:24:27.123Z,9.63
2023-03-30T03:27:08.957Z,9.61
2023-03-30T03:29:56.586Z,9.62
2023-03-30T03:32:29.512Z,9.62
2023-03-30T03:35:03.105Z,9.61
2023-03-30T03:37:36.114Z,9.58
2023-03-30T03:40:11.885Z,9.55
2023-03-30T03:42:45.143Z,9.53
2023-03-30T03:45:20.104Z,9.53
2023-03-30T03:48:01.685Z,9.53
2023-03-30T03:50:50.946Z,9.54
2023-03-30T03:53:24.892Z,9.49
2023-03-30T03:56:00.032Z,9.52
2023-03-30T03:58:32.936Z,9.52
2023-03-30T04:01:06.032Z,9.53
2023-03-30T04:03:39.136Z,9.53
2023-03-30T04:06:12.555Z,9.49
2023-03-30T04:08:46.905Z,9.52
2023-03-30T04:11:37.307Z,9.48
2023-03-30T04:14:29.167Z,9.50
2023-03-30T04:17:25.969Z,9.51
2023-03-30T04:20:31.969Z,9.52
2023-03-30T04:23:31.380Z,9.51
2023-03-30T04:26:22.810Z,9.49
2023-03-30T04:29:21.940Z,9.34
2023-03-30T04:32:25.541Z,9.47
2023-03-30T04:35:07.016Z,9.47
2023-03-30T04:38:09.945Z,9.46
2023-03-30T04:40:42.733Z,9.50
2023-03-30T04:43:30.344Z,9.49
2023-03-30T04:46:30.231Z,9.40
2023-03-30T04:49:16.778Z,9.46
2023-03-30T04:52:09.830Z,9.41
2023-03-30T04:55:02.083Z,9.42
2023-03-30T04:57:53.765Z,9.43
2023-03-30T05:00:46.765Z,9.43
2023-03-30T05:03:30.034Z,9.46
2023-03-30T05:06:21.680Z,9.47
2023-03-30T05:09:29.801Z,9.48
2023-03-30T05:12:23.458Z,9.39
2023-03-30T05:15:20.304Z,9.53
2023-03-30T05:18:25.690Z,9.55
2023-03-30T05:21:18.038Z,9.56
2023-03-30T05:24:17.223Z,9.50
2023-03-30T05:27:00.565Z,9.53
2023-03-30T05:29:51.296Z,9.59
2023-03-30T05:32:33.000Z,9.61
2023-03-30T05:35:14.724Z,9.59
2023-03-30T05:37:58.545Z,9.51
2023-03-30T05:40:59.074Z,9.57
2023-03-30T05:43:49.829Z,9.62
2023-03-30T05:46:40.074Z,9.63
2023-03-30T05:49:44.699Z,9.68
2023-03-30T05:52:46.962Z,9.69
2023-03-30T05:55:31.730Z,9.61
2023-03-30T05:58:30.978Z,9.64
2023-03-30T06:01:27.281Z,9.68
2023-03-30T06:04:01.051Z,9.71
2023-03-30T06:06:33.678Z,9.70
2023-03-30T06:09:06.697Z,9.74
2023-03-30T06:11:39.977Z,9.74
2023-03-30T06:14:22.727Z,9.81
2023-03-30T06:17:16.133Z,9.84
2023-03-30T06:19:49.412Z,9.85
2023-03-30T06:22:22.420Z,9.87
2023-03-30T06:25:24.699Z,9.86
2023-03-30T06:27:58.095Z,9.87
2023-03-30T06:30:31.383Z,9.91
2023-03-30T06:33:07.289Z,9.89
2023-03-30T06:35:54.435Z,9.96
2023-03-30T06:38:28.052Z,10.01
2023-03-30T06:41:04.939Z,10.06
2023-03-30T06:43:40.945Z,10.09
2023-03-30T06:46:22.221Z,10.14
2023-03-30T06:48:55.761Z,10.14
2023-03-30T06:51:47.762Z,10.12
2023-03-30T06:54:21.715Z,10.11
2023-03-30T06:57:01.370Z,10.11
2023-03-30T06:59:35.119Z,10.14
2023-03-30T07:02:28.527Z,10.13
2023-03-30T07:05:17.958Z,10.13
2023-03-30T07:08:11.458Z,10.06
2023-03-30T07:10:47.369Z,10.09
2023-03-30T07:13:20.905Z,10.06
2023-03-30T07:15:53.912Z,10.07
2023-03-30T07:18:26.642Z,10.11
2023-03-30T07:22:18.025Z,10.24
2023-03-30T07:24:50.956Z,10.19
2023-03-30T07:27:25.431Z,10.14
2023-03-30T07:30:07.155Z,10.27
2023-03-30T07:32:44.227Z,10.18
2023-03-30T07:35:18.036Z,10.28
2023-03-30T07:37:52.116Z,10.34
2023-03-30T07:40:25.395Z,10.39
2023-03-30T07:42:59.118Z,10.52
2023-03-30T07:45:32.292Z,10.57
2023-03-30T07:48:05.382Z,10.58
2023-03-30T07:50:38.390Z,10.66
2023-03-30T07:53:11.307Z,10.72
2023-03-30T07:55:44.410Z,10.79
2023-03-30T07:58:22.529Z,10.79
2023-03-30T08:00:55.170Z,10.82
2023-03-30T08:03:48.380Z,10.82
2023-03-30T08:06:21.426Z,10.73
2023-03-30T08:08:56.829Z,10.81
2023-03-30T08:11:29.610Z,10.91
2023-03-30T08:14:02.901Z,10.95
2023-03-30T08:16:36.157Z,11.11
2023-03-30T08:19:09.424Z,10.94
2023-03-30T08:21:42.427Z,11.03
2023-03-30T08:24:15.332Z,10.98
2023-03-30T08:26:48.606Z,11.16
2023-03-30T08:29:21.979Z,11.30
2023-03-30T08:31:55.022Z,11.38
2023-03-30T08:34:27.745Z,11.37
2023-03-30T08:37:01.586Z,11.32
2023-03-30T08:39:53.007Z,11.43
2023-03-30T08:43:00.277Z,11.55
2023-03-30T08:45:41.087Z,11.66
2023-03-30T08:48:21.012Z,11.78
2023-03-30T08:50:59.484Z,11.84
2023-03-30T08:53:34.937Z,11.88
2023-03-30T08:56:15.592Z,11.92
2023-03-30T08:58:56.039Z,11.98
2023-03-30T09:01:34.803Z,12.05
2023-03-30T09:04:19.036Z,12.16
2023-03-30T09:06:55.035Z,12.26
2023-03-30T09:09:33.269Z,12.30
2023-03-30T09:12:13.476Z,12.41
2023-03-30T09:14:51.417Z,12.55
2023-03-30T09:17:30.092Z,12.63
2023-03-30T09:20:07.796Z,12.74
2023-03-30T09:22:44.194Z,12.84
2023-03-30T09:25:19.584Z,12.97
2023-03-30T09:28:03.689Z,13.11
2023-03-30T09:30:41.780Z,13.27
2023-03-30T09:33:31.156Z,13.41
2023-03-30T09:36:14.843Z,13.54
2023-03-30T09:38:47.911Z,13.70
2023-03-30T09:41:41.253Z,13.80
2023-03-30T09:44:23.538Z,13.81
2023-03-30T09:47:00.998Z,13.81
2023-03-30T09:49:41.004Z,13.84
2023-03-30T09:52:23.938Z,13.95
2023-03-30T09:54:57.439Z,13.97
2023-03-30T09:57:32.355Z,13.98
2023-03-30T10:00:22.761Z,13.91
2023-03-30T10:03:00.527Z,13.93
2023-03-30T10:05:35.718Z,13.96
2023-03-30T10:08:19.658Z,13.87
2023-03-30T10:10:57.126Z,13.90
2023-03-30T10:13:33.776Z,13.89
2023-03-30T10:16:12.688Z,13.85
2023-03-30T10:18:47.493Z,13.93
2023-03-30T10:21:27.204Z,13.94
2023-03-30T10:24:09.431Z,13.94
2023-03-30T10:26:46.127Z,14.02
2023-03-30T10:29:21.926Z,13.99
2023-03-30T10:32:00.344Z,14.05
2023-03-30T10:34:39.350Z,14.08
2023-03-30T10:37:15.720Z,14.15
2023-03-30T10:39:49.979Z,14.18
2023-03-30T10:42:26.579Z,14.24
2023-03-30T10:45:02.436Z,14.32
2023-03-30T10:47:53.146Z,14.34
2023-03-30T10:50:36.032Z,14.38
2023-03-30T10:53:20.899Z,14.40
2023-03-30T10:56:04.370Z,14.41
2023-03-30T10:58:57.161Z,14.41
2023-03-30T11:01:37.371Z,14.39
2023-03-30T11:04:24.314Z,14.41
2023-03-30T11:07:01.547Z,14.43
2023-03-30T11:09:39.347Z,14.38
2023-03-30T11:12:20.025Z,14.37
2023-03-30T11:14:56.716Z,14.33
2023-03-30T11:17:34.029Z,14.25
2023-03-30T11:20:19.170Z,14.23
2023-03-30T11:22:57.070Z,14.20
2023-03-30T11:25:33.742Z,14.09
2023-03-30T11:28:15.106Z,14.11
2023-03-30T11:30:50.556Z,14.06
2023-03-30T11:33:30.674Z,14.00
2023-03-30T11:36:12.281Z,13.96
2023-03-30T11:38:51.157Z,13.96
2023-03-30T11:41:29.825Z,13.98
2023-03-30T11:44:03.119Z,13.98
2023-03-30T11:46:42.575Z,13.98
2023-03-30T11:49:41.939Z,13.90
2023-03-30T11:52:27.690Z,13.94
2023-03-30T11:55:40.610Z,13.97
2023-03-30T11:58:22.070Z,13.99
2023-03-30T12:01:04.550Z,14.00
2023-03-30T12:03:44.082Z,14.05
2023-03-30T12:06:34.298Z,14.07
2023-03-30T12:09:23.179Z,14.18
2023-03-30T12:12:03.758Z,14.22
2023-03-30T12:14:49.956Z,14.30
2023-03-30T12:17:39.879Z,14.31
2023-03-30T12:20:22.954Z,14.37
2023-03-30T12:23:00.601Z,14.40
2023-03-30T12:25:40.779Z,14.43
2023-03-30T12:28:16.178Z,14.45
2023-03-30T12:30:58.280Z,14.44
2023-03-30T12:33:35.757Z,14.50
2023-03-30T12:36:26.274Z,14.50
2023-03-30T12:39:02.592Z,14.48
2023-03-30T12:41:45.162Z,14.54
2023-03-30T12:44:36.682Z,14.56
2023-03-30T12:47:41.144Z,14.59
2023-03-30T12:50:39.193Z,14.61
2023-03-30T12:53:32.717Z,14.63
2023-03-30T12:56:12.248Z,14.78
2023-03-30T12:59:10.491Z,14.85
2023-03-30T13:02:05.737Z,14.91
2023-03-30T13:04:42.332Z,14.99
2023-03-30T13:07:22.728Z,15.02
2023-03-30T13:09:59.484Z,14.89
2023-03-30T13:12:42.215Z,15.00
2023-03-30T13:15:49.131Z,14.99
2023-03-30T13:18:42.331Z,14.97
2023-03-30T13:21:26.117Z,14.91
2023-03-30T13:24:29.461Z,14.83
2023-03-30T13:27:25.818Z,14.83
2023-03-30T13:30:00.239Z,14.83
2023-03-30T13:32:43.973Z,14.68
2023-03-30T13:35:40.802Z,14.77
2023-03-30T13:38:41.474Z,14.79
2023-03-30T13:41:38.864Z,14.78
2023-03-30T13:44:30.805Z,14.76
2023-03-30T13:47:20.254Z,14.72
2023-03-30T13:50:00.237Z,14.67
2023-03-30T13:52:38.382Z,14.66
2023-03-30T13:55:21.465Z,14.69
2023-03-30T13:58:01.002Z,14.70
2023-03-30T14:00:45.981Z,14.69
2023-03-30T14:03:32.644Z,14.68
2023-03-30T14:06:08.815Z,14.70
2023-03-30T14:08:45.115Z,14.74
2023-03-30T14:11:21.893Z,14.73
2023-03-30T14:13:55.780Z,14.78
2023-03-30T14:16:33.332Z,14.80
2023-03-30T14:19:14.676Z,14.90
2023-03-30T14:21:48.781Z,15.01
2023-03-30T14:24:29.158Z,15.03
2023-03-30T14:27:14.462Z,15.09
2023-03-30T14:29:49.944Z,15.14
2023-03-30T14:32:25.148Z,15.20
2023-03-30T14:34:58.102Z,15.25
2023-03-30T14:37:32.980Z,15.33
2023-03-30T14:40:13.813Z,15.37
2023-03-30T14:42:47.146Z,15.41
2023-03-30T14:45:20.880Z,15.42
2023-03-30T14:47:56.497Z,15.32
2023-03-30T14:50:29.878Z,15.36
2023-03-30T14:53:03.208Z,15.33
2023-03-30T14:55:36.827Z,15.38
2023-03-30T14:58:09.737Z,15.24
2023-03-30T15:00:43.201Z,15.26
2023-03-30T15:03:30.397Z,15.13
2023-03-30T15:06:07.385Z,15.00
2023-03-30T15:08:40.777Z,14.93
2023-03-30T15:11:18.078Z,14.90
2023-03-30T15:13:53.710Z,14.87
2023-03-30T15:16:28.885Z,14.86
2023-03-30T15:19:05.428Z,14.87
2023-03-30T15:21:39.603Z,14.85
2023-03-30T15:24:18.199Z,14.81
2023-03-30T15:26:52.178Z,14.69
2023-03-30T15:29:26.969Z,14.70
2023-03-30T15:32:09.412Z,14.75
2023-03-30T15:35:03.653Z,14.68
2023-03-30T15:37:38.210Z,14.63
2023-03-30T15:40:27.989Z,14.57
2023-03-30T15:43:25.347Z,14.56
2023-03-30T15:46:02.411Z,14.51
2023-03-30T15:48:43.091Z,14.56
2023-03-30T15:51:20.770Z,14.39
2023-03-30T15:53:56.720Z,14.41
2023-03-30T15:56:34.870Z,14.45
2023-03-30T15:59:13.821Z,14.46
2023-03-30T16:01:53.993Z,14.37
2023-03-30T16:04:31.549Z,14.50
2023-03-30T16:07:09.753Z,14.32
2023-03-30T16:09:42.352Z,14.36
2023-03-30T16:12:18.551Z,14.30
2023-03-30T16:14:52.605Z,14.29
2023-03-30T16:17:25.884Z,14.29
2023-03-30T16:19:58.843Z,14.40
2023-03-30T16:22:31.958Z,14.42
2023-03-30T16:25:05.018Z,14.40
2023-03-30T16:27:38.219Z,14.42
2023-03-30T16:30:20.146Z,14.52
2023-03-30T16:32:53.524Z,14.49
2023-03-30T16:35:26.528Z,14.53
2023-03-30T16:37:59.789Z,14.53
2023-03-30T16:40:37.647Z,14.45
2023-03-30T16:43:10.962Z,14.46
2023-03-30T16:45:44.223Z,14.46
2023-03-30T16:48:17.721Z,14.51
2023-03-30T16:50:53.332Z,14.53
2023-03-30T16:53:26.229Z,14.51
2023-03-30T16:55:58.978Z,14.51
2023-03-30T16:58:32.213Z,14.46
2023-03-30T17:01:05.315Z,14.38
2023-03-30T17:03:38.170Z,14.32
2023-03-30T17:06:12.009Z,14.22
2023-03-30T17:08:44.883Z,14.35
2023-03-30T17:11:18.376Z,14.28
2023-03-30T17:13:51.899Z,14.24
2023-03-30T17:16:27.479Z,14.21
2023-03-30T17:19:00.370Z,14.20
2023-03-30T17:21:33.294Z,14.20
2023-03-30T17:24:06.254Z,14.20
2023-03-30T17:26:39.120Z,14.14
2023-03-30T17:29:12.065Z,14.09
2023-03-30T17:31:46.198Z,14.11
2023-03-30T17:34:18.974Z,14.02
2023-03-30T17:36:52.046Z,14.05
2023-03-30T17:39:24.976Z,13.96
2023-03-30T17:42:00.162Z,13.91
2023-03-30T17:44:34.131Z,13.95
2023-03-30T17:47:07.150Z,13.99
2023-03-30T17:49:41.393Z,14.15
2023-03-30T17:52:14.230Z,14.05
2023-03-30T17:54:46.956Z,14.00
2023-03-30T17:57:19.502Z,13.90
2023-03-30T17:59:52.604Z,13.91
2023-03-30T18:02:25.620Z,13.77
2023-03-30T18:04:58.302Z,13.69
2023-03-30T18:07:33.583Z,13.59
2023-03-30T18:10:17.366Z,13.52
2023-03-30T18:12:51.044Z,13.46
2023-03-30T18:15:28.060Z,13.44
2023-03-30T18:18:02.721Z,13.38
2023-03-30T18:20:37.865Z,13.37
2023-03-30T18:23:10.986Z,13.34
2023-03-30T18:25:44.561Z,13.28
2023-03-30T18:28:19.941Z,13.23
2023-03-30T18:30:55.403Z,13.27
2023-03-30T18:33:28.997Z,13.23
2023-03-30T18:36:05.939Z,13.25
2023-03-30T18:38:39.438Z,13.28
2023-03-30T18:41:14.036Z,13.23
2023-03-30T18:43:47.405Z,13.22
2023-03-30T18:46:21.274Z,13.23
2023-03-30T18:48:55.434Z,13.13
2023-03-30T18:51:28.232Z,13.20
2023-03-30T18:54:01.564Z,13.18
2023-03-30T18:56:34.637Z,13.22
2023-03-30T18:59:07.726Z,13.22
2023-03-30T19:01:40.486Z,13.20
2023-03-30T19:04:13.838Z,13.19
2023-03-30T19:06:47.760Z,13.08
2023-03-30T19:09:29.822Z,13.06
2023-03-30T19:12:12.931Z,13.06
2023-03-30T19:14:45.781Z,13.00
2023-03-30T19:17:18.704Z,13.04
2023-03-30T19:19:51.364Z,12.96
2023-03-30T19:22:24.109Z,12.90
2023-03-30T19:24:58.252Z,12.86
2023-03-30T19:27:31.089Z,12.87
2023-03-30T19:30:04.091Z,12.91
2023-03-30T19:32:37.520Z,12.85
2023-03-30T19:35:10.983Z,12.79
2023-03-30T19:37:45.808Z,12.72
2023-03-30T19:40:20.270Z,12.60
2023-03-30T19:42:54.094Z,12.53
2023-03-30T19:45:27.246Z,12.55
2023-03-30T19:48:00.486Z,12.58
2023-03-30T19:50:33.831Z,12.60
2023-03-30T19:53:06.734Z,12.63
2023-03-30T19:55:39.842Z,12.53
2023-03-30T19:58:14.698Z,12.48
2023-03-30T20:00:47.485Z,12.59
2023-03-30T20:03:21.230Z,12.38
2023-03-30T20:05:54.194Z,12.55
2023-03-30T20:08:26.852Z,12.58
2023-03-30T20:11:00.350Z,12.42
2023-03-30T20:13:33.494Z,12.34
2023-03-30T20:16:06.590Z,12.27
2023-03-30T20:18:43.330Z,12.26
2023-03-30T20:21:19.383Z,12.26
2023-03-30T20:23:52.403Z,12.13
2023-03-30T20:26:25.357Z,12.05
2023-03-30T20:28:58.143Z,12.13
2023-03-30T20:31:31.787Z,12.19
2023-03-30T20:34:05.029Z,12.11
2023-03-30T20:36:38.001Z,12.12
2023-03-30T20:39:13.906Z,12.01
2023-03-30T20:41:46.901Z,11.98
2023-03-30T20:44:29.933Z,11.88
2023-03-30T20:47:04.217Z,12.03
2023-03-30T20:49:41.951Z,12.16
2023-03-30T20:52:16.011Z,12.11
2023-03-30T20:54:50.309Z,12.01
2023-03-30T20:57:24.496Z,11.79
2023-03-30T20:59:57.478Z,11.83
2023-03-30T21:02:31.616Z,11.85
2023-03-30T21:05:05.069Z,11.95
2023-03-30T21:07:42.380Z,12.06
2023-03-30T21:10:16.592Z,11.98
2023-03-30T21:12:49.184Z,12.20
2023-03-30T21:15:22.399Z,12.01
2023-03-30T21:17:55.203Z,11.82
2023-03-30T21:20:28.222Z,11.86
2023-03-30T21:23:27.069Z,11.94
2023-03-30T21:26:02.750Z,11.70
2023-03-30T21:28:36.939Z,11.67
2023-03-30T21:31:14.278Z,11.66
2023-03-30T21:33:47.604Z,11.75
2023-03-30T21:36:21.706Z,11.82
2023-03-30T21:38:56.300Z,11.74
2023-03-30T21:41:29.954Z,11.75
2023-03-30T21:44:02.549Z,11.74
2023-03-30T21:46:35.147Z,11.84
2023-03-30T21:49:08.861Z,11.87
2023-03-30T21:51:41.977Z,11.76
2023-03-30T21:54:14.914Z,11.77
2023-03-30T21:56:47.712Z,11.73
2023-03-30T21:59:20.710Z,11.75
2023-03-30T22:01:53.427Z,11.76
2023-03-30T22:04:26.554Z,11.76
2023-03-30T22:06:59.535Z,11.81
2023-03-30T22:09:33.491Z,11.70
2023-03-30T22:12:10.978Z,11.74
2023-03-30T22:14:43.897Z,11.73
2023-03-30T22:17:19.013Z,11.74
2023-03-30T22:19:52.969Z,11.79
2023-03-30T22:22:25.991Z,11.67
2023-03-30T22:24:58.559Z,11.57
2023-03-30T22:27:31.509Z,11.59
2023-03-30T22:30:05.781Z,11.63
2023-03-30T22:32:38.735Z,11.70
2023-03-30T22:35:12.778Z,11.72
2023-03-30T22:37:46.609Z,11.77
2023-03-30T22:40:20.062Z,11.71
2023-03-30T22:42:52.512Z,11.70
2023-03-30T22:45:26.058Z,11.55
2023-03-30T22:48:00.234Z,11.68
2023-03-30T22:50:35.003Z,11.66
2023-03-30T22:53:08.005Z,11.75
2023-03-30T22:55:41.664Z,11.86
2023-03-30T22:58:14.992Z,11.86
2023-03-30T23:00:47.661Z,11.83
2023-03-30T23:03:22.716Z,11.67
2023-03-30T23:05:56.004Z,11.74
2023-03-30T23:08:29.609Z,11.79
2023-03-30T23:11:05.315Z,11.86
2023-03-30T23:13:42.116Z,11.75
2023-03-30T23:16:15.477Z,11.79
2023-03-30T23:18:51.662Z,11.80
2023-03-30T23:21:24.258Z,11.92
2023-03-30T23:23:56.934Z,11.84
2023-03-30T23:26:30.110Z,11.77
2023-03-30T23:29:03.075Z,11.76
2023-03-30T23:31:38.676Z,11.82
2023-03-30T23:34:14.656Z,11.73
2023-03-30T23:36:49.968Z,11.77
2023-03-30T23:39:26.081Z,11.77
2023-03-30T23:41:59.252Z,11.81
2023-03-30T23:44:31.896Z,11.80
2023-03-30T23:47:04.420Z,11.79
2023-03-30T23:49:37.678Z,11.77
2023-03-30T23:52:11.094Z,11.77
2023-03-30T23:54:44.067Z,11.56
2023-03-30T23:57:16.968Z,11.45
2023-03-30T23:59:50.169Z,11.49
